sensor_id;sensor_type;location;lat;lon;timestamp;pressure;altitude;pressure_sealevel;temperature;humidity
77299;BME280;66361;52.034;20.656;2024-03-08T00:01:32;100843.66;;;-4.54;91.52
77299;BME280;66361;52.034;20.656;2024-03-08T00:05:16;100842.75;;;-4.56;91.56
77299;BME280;66361;52.034;20.656;2024-03-08T00:09:00;100840.06;;;-4.59;91.35
77299;BME280;66361;52.034;20.656;2024-03-08T00:12:45;100832.88;;;-4.69;91.43
77299;BME280;66361;52.034;20.656;2024-03-08T00:16:30;100840.41;;;-4.75;90.86
77299;BME280;66361;52.034;20.656;2024-03-08T00:20:14;100832.47;;;-4.82;91.04
77299;BME280;66361;52.034;20.656;2024-03-08T00:24:00;100834.16;;;-4.83;90.94
77299;BME280;66361;52.034;20.656;2024-03-08T00:27:44;100836.72;;;-4.84;91.19
77299;BME280;66361;52.034;20.656;2024-03-08T00:31:33;100829.94;;;-4.81;91.51
77299;BME280;66361;52.034;20.656;2024-03-08T00:35:17;100838.28;;;-4.90;91.07
77299;BME280;66361;52.034;20.656;2024-03-08T00:39:02;100833.00;;;-4.94;91.22
77299;BME280;66361;52.034;20.656;2024-03-08T00:42:48;100828.63;;;-4.97;91.09
77299;BME280;66361;52.034;20.656;2024-03-08T00:46:33;100827.50;;;-5.05;90.94
77299;BME280;66361;52.034;20.656;2024-03-08T00:50:17;100823.16;;;-5.06;91.30
77299;BME280;66361;52.034;20.656;2024-03-08T00:54:01;100826.41;;;-5.11;91.04
77299;BME280;66361;52.034;20.656;2024-03-08T00:57:46;100826.41;;;-5.11;91.11
77299;BME280;66361;52.034;20.656;2024-03-08T01:01:30;100829.00;;;-5.11;91.00
77299;BME280;66361;52.034;20.656;2024-03-08T01:05:15;100820.56;;;-5.07;91.48
77299;BME280;66361;52.034;20.656;2024-03-08T01:09:00;100826.34;;;-5.14;91.14
77299;BME280;66361;52.034;20.656;2024-03-08T01:12:44;100822.84;;;-5.16;91.28
77299;BME280;66361;52.034;20.656;2024-03-08T01:16:28;100823.66;;;-5.17;91.15
77299;BME280;66361;52.034;20.656;2024-03-08T01:20:12;100825.28;;;-5.21;91.30
77299;BME280;66361;52.034;20.656;2024-03-08T01:23:57;100828.66;;;-5.22;91.09
77299;BME280;66361;52.034;20.656;2024-03-08T01:27:41;100823.78;;;-5.14;91.48
77299;BME280;66361;52.034;20.656;2024-03-08T01:31:26;100817.31;;;-5.27;91.31
77299;BME280;66361;52.034;20.656;2024-03-08T01:35:11;100825.78;;;-5.31;91.17
77299;BME280;66361;52.034;20.656;2024-03-08T01:38:56;100822.03;;;-5.15;91.80
77299;BME280;66361;52.034;20.656;2024-03-08T01:42:40;100816.44;;;-5.28;91.57
77299;BME280;66361;52.034;20.656;2024-03-08T01:46:25;100812.88;;;-5.33;91.25
77299;BME280;66361;52.034;20.656;2024-03-08T01:50:10;100817.19;;;-5.32;91.49
77299;BME280;66361;52.034;20.656;2024-03-08T01:53:57;100822.00;;;-5.41;91.21
77299;BME280;66361;52.034;20.656;2024-03-08T01:57:41;100809.78;;;-5.48;90.99
77299;BME280;66361;52.034;20.656;2024-03-08T02:01:25;100805.72;;;-5.41;91.39
77299;BME280;66361;52.034;20.656;2024-03-08T02:05:10;100799.81;;;-5.39;91.77
77299;BME280;66361;52.034;20.656;2024-03-08T02:08:54;100803.94;;;-5.44;91.17
77299;BME280;66361;52.034;20.656;2024-03-08T02:12:39;100795.28;;;-5.46;91.15
77299;BME280;66361;52.034;20.656;2024-03-08T02:16:23;100803.75;;;-5.48;91.16
77299;BME280;66361;52.034;20.656;2024-03-08T02:20:08;100800.38;;;-5.47;91.24
77299;BME280;66361;52.034;20.656;2024-03-08T02:23:55;100798.00;;;-5.41;91.49
77299;BME280;66361;52.034;20.656;2024-03-08T02:27:40;100798.13;;;-5.38;91.73
77299;BME280;66361;52.034;20.656;2024-03-08T02:31:24;100794.56;;;-5.42;91.52
77299;BME280;66361;52.034;20.656;2024-03-08T02:35:08;100794.38;;;-5.48;91.47
77299;BME280;66361;52.034;20.656;2024-03-08T02:38:52;100792.47;;;-5.53;91.45
77299;BME280;66361;52.034;20.656;2024-03-08T02:42:39;100790.78;;;-5.53;91.52
77299;BME280;66361;52.034;20.656;2024-03-08T02:46:22;100786.44;;;-5.54;91.29
77299;BME280;66361;52.034;20.656;2024-03-08T02:50:07;100788.00;;;-5.59;91.31
77299;BME280;66361;52.034;20.656;2024-03-08T02:53:52;100789.44;;;-5.67;91.09
77299;BME280;66361;52.034;20.656;2024-03-08T02:57:36;100784.03;;;-5.75;91.04
77299;BME280;66361;52.034;20.656;2024-03-08T03:01:21;100786.44;;;-5.79;90.78
77299;BME280;66361;52.034;20.656;2024-03-08T03:05:06;100784.69;;;-5.80;90.83
77299;BME280;66361;52.034;20.656;2024-03-08T03:08:51;100774.03;;;-5.67;91.63
77299;BME280;66361;52.034;20.656;2024-03-08T03:12:36;100770.72;;;-5.63;91.52
77299;BME280;66361;52.034;20.656;2024-03-08T03:16:21;100776.06;;;-5.57;91.67
77299;BME280;66361;52.034;20.656;2024-03-08T03:20:07;100775.91;;;-5.61;91.68
77299;BME280;66361;52.034;20.656;2024-03-08T03:23:55;100771.28;;;-5.72;91.27
77299;BME280;66361;52.034;20.656;2024-03-08T03:27:41;100773.00;;;-5.72;91.35
77299;BME280;66361;52.034;20.656;2024-03-08T03:31:27;100777.75;;;-5.83;91.14
77299;BME280;66361;52.034;20.656;2024-03-08T03:35:11;100771.63;;;-5.86;91.01
77299;BME280;66361;52.034;20.656;2024-03-08T03:38:55;100776.13;;;-5.81;91.14
77299;BME280;66361;52.034;20.656;2024-03-08T03:42:49;100770.09;;;-5.81;91.12
77299;BME280;66361;52.034;20.656;2024-03-08T03:46:34;100765.53;;;-5.90;90.57
77299;BME280;66361;52.034;20.656;2024-03-08T03:50:18;100769.38;;;-6.02;90.33
77299;BME280;66361;52.034;20.656;2024-03-08T03:54:03;100770.25;;;-6.02;90.66
77299;BME280;66361;52.034;20.656;2024-03-08T03:57:47;100764.44;;;-5.96;90.99
77299;BME280;66361;52.034;20.656;2024-03-08T04:01:31;100762.09;;;-5.90;91.10
77299;BME280;66361;52.034;20.656;2024-03-08T04:05:21;100767.09;;;-5.93;90.79
77299;BME280;66361;52.034;20.656;2024-03-08T04:09:05;100762.19;;;-5.87;91.33
77299;BME280;66361;52.034;20.656;2024-03-08T04:12:49;100756.19;;;-5.88;91.37
77299;BME280;66361;52.034;20.656;2024-03-08T04:16:33;100756.00;;;-5.92;91.33
77299;BME280;66361;52.034;20.656;2024-03-08T04:20:17;100756.00;;;-5.92;91.38
77299;BME280;66361;52.034;20.656;2024-03-08T04:24:02;100750.78;;;-5.95;91.34
77299;BME280;66361;52.034;20.656;2024-03-08T04:27:46;100752.47;;;-5.96;91.18
77299;BME280;66361;52.034;20.656;2024-03-08T04:31:31;100754.59;;;-6.08;90.84
77299;BME280;66361;52.034;20.656;2024-03-08T04:35:15;100753.63;;;-6.12;90.75
77299;BME280;66361;52.034;20.656;2024-03-08T04:38:59;100750.25;;;-6.11;90.84
77299;BME280;66361;52.034;20.656;2024-03-08T04:42:45;100752.81;;;-6.11;90.90
77299;BME280;66361;52.034;20.656;2024-03-08T04:46:29;100753.34;;;-5.95;91.55
77299;BME280;66361;52.034;20.656;2024-03-08T04:50:13;100747.22;;;-5.99;91.40
77299;BME280;66361;52.034;20.656;2024-03-08T04:53:57;100746.47;;;-5.96;91.44
77299;BME280;66361;52.034;20.656;2024-03-08T04:57:42;100751.59;;;-5.96;91.31
77299;BME280;66361;52.034;20.656;2024-03-08T05:01:30;100755.09;;;-5.94;91.34
77299;BME280;66361;52.034;20.656;2024-03-08T05:05:14;100749.59;;;-6.05;90.77
77299;BME280;66361;52.034;20.656;2024-03-08T05:08:58;100749.72;;;-6.00;90.96
77299;BME280;66361;52.034;20.656;2024-03-08T05:12:42;100753.44;;;-5.92;91.34
77299;BME280;66361;52.034;20.656;2024-03-08T05:16:25;100755.59;;;-5.79;91.37
77299;BME280;66361;52.034;20.656;2024-03-08T05:20:11;100756.22;;;-5.86;90.64
77299;BME280;66361;52.034;20.656;2024-03-08T05:23:56;100758.09;;;-5.82;90.48
77299;BME280;66361;52.034;20.656;2024-03-08T05:27:40;100754.09;;;-5.74;90.51
77299;BME280;66361;52.034;20.656;2024-03-08T05:31:23;100750.97;;;-5.64;90.47
77299;BME280;66361;52.034;20.656;2024-03-08T05:35:08;100744.34;;;-5.57;90.07
77299;BME280;66361;52.034;20.656;2024-03-08T05:38:54;100741.34;;;-5.46;90.05
77299;BME280;66361;52.034;20.656;2024-03-08T05:42:38;100744.22;;;-5.37;89.87
77299;BME280;66361;52.034;20.656;2024-03-08T05:46:21;100740.31;;;-5.24;89.77
77299;BME280;66361;52.034;20.656;2024-03-08T05:50:06;100743.38;;;-5.09;89.71
77299;BME280;66361;52.034;20.656;2024-03-08T05:53:54;100749.00;;;-4.94;89.88
77299;BME280;66361;52.034;20.656;2024-03-08T05:57:39;100746.81;;;-4.80;89.19
77299;BME280;66361;52.034;20.656;2024-03-08T06:01:23;100745.63;;;-4.61;88.85
77299;BME280;66361;52.034;20.656;2024-03-08T06:05:08;100746.19;;;-4.43;88.99
77299;BME280;66361;52.034;20.656;2024-03-08T06:08:53;100742.69;;;-4.15;89.17
77299;BME280;66361;52.034;20.656;2024-03-08T06:12:39;100737.38;;;-3.90;88.95
77299;BME280;66361;52.034;20.656;2024-03-08T06:16:24;100740.41;;;-1.78;87.61
77299;BME280;66361;52.034;20.656;2024-03-08T06:20:11;100732.31;;;1.86;80.19
77299;BME280;66361;52.034;20.656;2024-03-08T06:23:57;100718.22;;;4.07;74.96
77299;BME280;66361;52.034;20.656;2024-03-08T06:27:41;100724.00;;;5.52;65.94
77299;BME280;66361;52.034;20.656;2024-03-08T06:31:26;100725.59;;;6.86;58.22
77299;BME280;66361;52.034;20.656;2024-03-08T06:35:09;100728.41;;;7.73;54.60
77299;BME280;66361;52.034;20.656;2024-03-08T06:38:54;100737.59;;;8.73;51.81
77299;BME280;66361;52.034;20.656;2024-03-08T06:42:40;100731.38;;;9.47;48.81
77299;BME280;66361;52.034;20.656;2024-03-08T06:46:25;100729.66;;;10.35;47.56
77299;BME280;66361;52.034;20.656;2024-03-08T06:50:09;100731.78;;;11.06;45.10
77299;BME280;66361;52.034;20.656;2024-03-08T06:53:54;100726.09;;;11.68;42.24
77299;BME280;66361;52.034;20.656;2024-03-08T06:57:37;100729.88;;;12.09;41.24
77299;BME280;66361;52.034;20.656;2024-03-08T07:01:24;100727.16;;;12.34;41.97
77299;BME280;66361;52.034;20.656;2024-03-08T07:05:07;100720.63;;;13.08;40.82
77299;BME280;66361;52.034;20.656;2024-03-08T07:08:53;100723.59;;;13.63;39.83
77299;BME280;66361;52.034;20.656;2024-03-08T07:12:37;100724.25;;;14.25;40.00
77299;BME280;66361;52.034;20.656;2024-03-08T07:16:21;100723.44;;;14.97;38.64
77299;BME280;66361;52.034;20.656;2024-03-08T07:20:08;100717.28;;;15.14;36.95
77299;BME280;66361;52.034;20.656;2024-03-08T07:23:54;100722.63;;;15.65;36.38
77299;BME280;66361;52.034;20.656;2024-03-08T07:27:56;100720.53;;;15.88;34.57
77299;BME280;66361;52.034;20.656;2024-03-08T07:31:40;100710.97;;;15.51;36.08
77299;BME280;66361;52.034;20.656;2024-03-08T07:35:34;100714.91;;;15.76;35.21
77299;BME280;66361;52.034;20.656;2024-03-08T07:39:20;100718.59;;;17.01;33.11
77299;BME280;66361;52.034;20.656;2024-03-08T07:43:06;100713.38;;;15.55;34.20
77299;BME280;66361;52.034;20.656;2024-03-08T07:46:49;100718.84;;;17.12;32.90
77299;BME280;66361;52.034;20.656;2024-03-08T07:50:40;100716.66;;;16.89;32.62
77299;BME280;66361;52.034;20.656;2024-03-08T07:54:24;100707.56;;;16.46;33.27
77299;BME280;66361;52.034;20.656;2024-03-08T07:58:10;100710.34;;;17.06;33.08
77299;BME280;66361;52.034;20.656;2024-03-08T08:01:56;100707.19;;;17.73;31.16
77299;BME280;66361;52.034;20.656;2024-03-08T08:05:41;100701.69;;;16.86;32.96
77299;BME280;66361;52.034;20.656;2024-03-08T08:09:25;100708.88;;;17.00;32.50
77299;BME280;66361;52.034;20.656;2024-03-08T08:13:17;100707.69;;;17.35;32.01
77299;BME280;66361;52.034;20.656;2024-03-08T08:17:01;100703.31;;;17.79;29.70
77299;BME280;66361;52.034;20.656;2024-03-08T08:20:48;100699.88;;;18.46;28.61
77299;BME280;66361;52.034;20.656;2024-03-08T08:24:32;100687.63;;;17.14;30.06
77299;BME280;66361;52.034;20.656;2024-03-08T08:28:16;100693.56;;;18.06;29.33
77299;BME280;66361;52.034;20.656;2024-03-08T08:32:01;100694.59;;;18.03;28.50
77299;BME280;66361;52.034;20.656;2024-03-08T08:35:45;100696.06;;;18.50;29.56
77299;BME280;66361;52.034;20.656;2024-03-08T08:39:31;100687.63;;;18.70;28.72
77299;BME280;66361;52.034;20.656;2024-03-08T08:43:15;100683.53;;;19.31;26.00
77299;BME280;66361;52.034;20.656;2024-03-08T08:47:00;100687.66;;;18.83;28.48
77299;BME280;66361;52.034;20.656;2024-03-08T08:50:53;100681.66;;;17.83;28.87
77299;BME280;66361;52.034;20.656;2024-03-08T08:54:39;100679.91;;;18.10;28.05
77299;BME280;66361;52.034;20.656;2024-03-08T08:58:22;100681.94;;;14.22;31.66
77299;BME280;66361;52.034;20.656;2024-03-08T09:02:06;100680.16;;;17.35;28.67
77299;BME280;66361;52.034;20.656;2024-03-08T09:05:54;100676.78;;;16.87;29.03
77299;BME280;66361;52.034;20.656;2024-03-08T09:09:43;100665.41;;;17.00;27.66
77299;BME280;66361;52.034;20.656;2024-03-08T09:13:26;100674.28;;;15.57;29.14
77299;BME280;66361;52.034;20.656;2024-03-08T09:17:16;100667.78;;;15.96;30.52
77299;BME280;66361;52.034;20.656;2024-03-08T09:21:03;100659.75;;;15.47;31.17
77299;BME280;66361;52.034;20.656;2024-03-08T09:24:49;100663.59;;;15.24;30.00
77299;BME280;66361;52.034;20.656;2024-03-08T09:28:33;100658.47;;;13.37;32.52
77299;BME280;66361;52.034;20.656;2024-03-08T09:32:17;100648.13;;;14.45;34.76
77299;BME280;66361;52.034;20.656;2024-03-08T09:36:01;100646.59;;;16.10;31.37
77299;BME280;66361;52.034;20.656;2024-03-08T09:39:46;100641.38;;;17.29;27.75
77299;BME280;66361;52.034;20.656;2024-03-08T09:43:32;100646.16;;;16.33;30.70
77299;BME280;66361;52.034;20.656;2024-03-08T09:47:18;100641.50;;;15.24;31.02
77299;BME280;66361;52.034;20.656;2024-03-08T09:51:03;100639.06;;;15.02;32.67
77299;BME280;66361;52.034;20.656;2024-03-08T09:54:47;100632.34;;;15.12;32.17
77299;BME280;66361;52.034;20.656;2024-03-08T09:58:33;100640.84;;;14.12;31.37
77299;BME280;66361;52.034;20.656;2024-03-08T10:02:36;100638.38;;;15.66;28.53
77299;BME280;66361;52.034;20.656;2024-03-08T10:06:22;100633.72;;;15.36;31.52
77299;BME280;66361;52.034;20.656;2024-03-08T10:10:07;100643.22;;;16.22;29.24
77299;BME280;66361;52.034;20.656;2024-03-08T10:13:56;100641.78;;;15.18;30.17
77299;BME280;66361;52.034;20.656;2024-03-08T10:17:40;100643.88;;;15.78;29.76
77299;BME280;66361;52.034;20.656;2024-03-08T10:21:24;100630.94;;;15.05;31.37
77299;BME280;66361;52.034;20.656;2024-03-08T10:25:08;100628.63;;;14.46;32.09
77299;BME280;66361;52.034;20.656;2024-03-08T10:28:53;100630.22;;;14.67;32.48
77299;BME280;66361;52.034;20.656;2024-03-08T10:32:39;100629.91;;;15.91;29.26
77299;BME280;66361;52.034;20.656;2024-03-08T10:36:23;100628.13;;;16.38;28.47
77299;BME280;66361;52.034;20.656;2024-03-08T10:40:10;100632.69;;;16.05;29.26
77299;BME280;66361;52.034;20.656;2024-03-08T10:44:10;100610.53;;;15.06;31.85
77299;BME280;66361;52.034;20.656;2024-03-08T10:48:04;100610.88;;;14.65;33.87
77299;BME280;66361;52.034;20.656;2024-03-08T10:51:52;100602.63;;;13.79;32.25
77299;BME280;66361;52.034;20.656;2024-03-08T10:55:40;100612.38;;;12.16;35.64
77299;BME280;66361;52.034;20.656;2024-03-08T10:59:25;100605.16;;;11.03;37.71
77299;BME280;66361;52.034;20.656;2024-03-08T11:03:45;100601.97;;;10.43;40.54
77299;BME280;66361;52.034;20.656;2024-03-08T11:07:33;100596.41;;;10.78;37.05
77299;BME280;66361;52.034;20.656;2024-03-08T11:11:25;100594.13;;;10.41;38.73
77299;BME280;66361;52.034;20.656;2024-03-08T11:15:15;100589.66;;;9.89;38.65
77299;BME280;66361;52.034;20.656;2024-03-08T11:19:06;100582.59;;;9.91;39.75
77299;BME280;66361;52.034;20.656;2024-03-08T11:23:06;100580.47;;;10.02;41.58
77299;BME280;66361;52.034;20.656;2024-03-08T11:26:57;100570.81;;;10.01;38.47
77299;BME280;66361;52.034;20.656;2024-03-08T11:30:46;100575.34;;;9.08;39.81
77299;BME280;66361;52.034;20.656;2024-03-08T11:34:33;100581.09;;;9.53;39.30
77299;BME280;66361;52.034;20.656;2024-03-08T11:38:17;100572.19;;;9.26;37.69
77299;BME280;66361;52.034;20.656;2024-03-08T11:42:01;100576.50;;;9.29;39.18
77299;BME280;66361;52.034;20.656;2024-03-08T11:45:46;100570.38;;;9.28;37.74
77299;BME280;66361;52.034;20.656;2024-03-08T11:49:33;100569.25;;;9.06;38.46
77299;BME280;66361;52.034;20.656;2024-03-08T11:53:17;100555.34;;;9.02;39.65
77299;BME280;66361;52.034;20.656;2024-03-08T11:57:01;100552.81;;;8.98;41.91
77299;BME280;66361;52.034;20.656;2024-03-08T12:00:45;100551.84;;;9.02;39.67
77299;BME280;66361;52.034;20.656;2024-03-08T12:04:30;100550.28;;;8.95;39.95
77299;BME280;66361;52.034;20.656;2024-03-08T12:08:16;100545.53;;;9.07;40.00
77299;BME280;66361;52.034;20.656;2024-03-08T12:12:03;100536.25;;;8.96;39.11
77299;BME280;66361;52.034;20.656;2024-03-08T12:15:48;100534.94;;;8.79;40.31
77299;BME280;66361;52.034;20.656;2024-03-08T12:19:33;100532.84;;;8.91;41.25
77299;BME280;66361;52.034;20.656;2024-03-08T12:23:18;100532.16;;;8.84;41.27
77299;BME280;66361;52.034;20.656;2024-03-08T12:27:17;100533.94;;;8.83;40.72
77299;BME280;66361;52.034;20.656;2024-03-08T12:31:02;100528.13;;;8.72;39.18
77299;BME280;66361;52.034;20.656;2024-03-08T12:34:52;100524.78;;;8.66;38.76
77299;BME280;66361;52.034;20.656;2024-03-08T12:38:43;100515.28;;;8.60;38.85
77299;BME280;66361;52.034;20.656;2024-03-08T12:42:30;100511.44;;;8.73;41.70
77299;BME280;66361;52.034;20.656;2024-03-08T12:46:14;100510.78;;;8.65;41.63
77299;BME280;66361;52.034;20.656;2024-03-08T12:49:59;100506.81;;;8.51;40.57
77299;BME280;66361;52.034;20.656;2024-03-08T12:53:46;100491.88;;;8.51;42.15
77299;BME280;66361;52.034;20.656;2024-03-08T12:57:44;100500.88;;;8.42;42.50
77299;BME280;66361;52.034;20.656;2024-03-08T13:01:29;100487.78;;;8.41;41.22
77299;BME280;66361;52.034;20.656;2024-03-08T13:05:19;100478.13;;;8.41;41.65
77299;BME280;66361;52.034;20.656;2024-03-08T13:09:08;100478.53;;;8.26;40.33
77299;BME280;66361;52.034;20.656;2024-03-08T13:12:55;100464.53;;;8.26;40.28
77299;BME280;66361;52.034;20.656;2024-03-08T13:16:42;100468.16;;;8.22;40.84
77299;BME280;66361;52.034;20.656;2024-03-08T13:20:31;100471.72;;;8.19;40.80
77299;BME280;66361;52.034;20.656;2024-03-08T13:24:32;100462.47;;;8.03;39.57
77299;BME280;66361;52.034;20.656;2024-03-08T13:28:18;100456.50;;;7.98;39.97
77299;BME280;66361;52.034;20.656;2024-03-08T13:32:09;100463.50;;;7.97;39.35
77299;BME280;66361;52.034;20.656;2024-03-08T13:36:01;100451.56;;;7.86;38.91
77299;BME280;66361;52.034;20.656;2024-03-08T13:39:51;100450.97;;;7.73;39.33
77299;BME280;66361;52.034;20.656;2024-03-08T13:43:35;100446.56;;;7.75;40.86
77299;BME280;66361;52.034;20.656;2024-03-08T13:47:19;100450.31;;;7.65;39.59
77299;BME280;66361;52.034;20.656;2024-03-08T13:51:04;100446.00;;;7.62;40.61
77299;BME280;66361;52.034;20.656;2024-03-08T13:54:47;100449.69;;;7.55;39.50
77299;BME280;66361;52.034;20.656;2024-03-08T13:58:34;100434.69;;;7.59;40.62
77299;BME280;66361;52.034;20.656;2024-03-08T14:02:18;100436.13;;;7.72;41.37
77299;BME280;66361;52.034;20.656;2024-03-08T14:06:05;100433.63;;;7.68;40.02
77299;BME280;66361;52.034;20.656;2024-03-08T14:09:50;100426.59;;;7.68;41.67
77299;BME280;66361;52.034;20.656;2024-03-08T14:13:40;100428.66;;;7.57;40.61
77299;BME280;66361;52.034;20.656;2024-03-08T14:17:25;100426.78;;;7.60;41.33
77299;BME280;66361;52.034;20.656;2024-03-08T14:21:09;100428.53;;;7.61;40.43
77299;BME280;66361;52.034;20.656;2024-03-08T14:24:53;100432.25;;;7.51;40.28
77299;BME280;66361;52.034;20.656;2024-03-08T14:28:39;100422.78;;;7.46;40.83
77299;BME280;66361;52.034;20.656;2024-03-08T14:32:23;100424.38;;;7.51;41.36
77299;BME280;66361;52.034;20.656;2024-03-08T14:36:08;100417.81;;;7.35;42.03
77299;BME280;66361;52.034;20.656;2024-03-08T14:39:56;100414.38;;;7.32;41.25
77299;BME280;66361;52.034;20.656;2024-03-08T14:43:43;100411.06;;;7.23;41.67
77299;BME280;66361;52.034;20.656;2024-03-08T14:47:29;100411.34;;;7.11;41.54
77299;BME280;66361;52.034;20.656;2024-03-08T14:51:13;100406.25;;;7.05;41.70
77299;BME280;66361;52.034;20.656;2024-03-08T14:54:57;100402.72;;;7.06;41.61
77299;BME280;66361;52.034;20.656;2024-03-08T14:58:43;100401.97;;;7.00;41.19
77299;BME280;66361;52.034;20.656;2024-03-08T15:02:27;100401.25;;;6.93;43.35
77299;BME280;66361;52.034;20.656;2024-03-08T15:06:11;100398.94;;;6.78;42.70
77299;BME280;66361;52.034;20.656;2024-03-08T15:09:57;100398.00;;;6.80;42.83
77299;BME280;66361;52.034;20.656;2024-03-08T15:13:43;100397.16;;;6.80;43.19
77299;BME280;66361;52.034;20.656;2024-03-08T15:17:28;100391.13;;;6.76;42.46
77299;BME280;66361;52.034;20.656;2024-03-08T15:21:13;100385.38;;;6.59;43.25
77299;BME280;66361;52.034;20.656;2024-03-08T15:24:59;100384.03;;;6.40;45.08
77299;BME280;66361;52.034;20.656;2024-03-08T15:28:45;100381.06;;;6.12;47.51
77299;BME280;66361;52.034;20.656;2024-03-08T15:32:30;100379.22;;;6.17;46.02
77299;BME280;66361;52.034;20.656;2024-03-08T15:36:15;100384.00;;;5.95;48.17
77299;BME280;66361;52.034;20.656;2024-03-08T15:39:59;100387.16;;;5.65;51.50
77299;BME280;66361;52.034;20.656;2024-03-08T15:43:50;100379.38;;;5.60;50.53
77299;BME280;66361;52.034;20.656;2024-03-08T15:47:34;100376.53;;;5.22;51.91
77299;BME280;66361;52.034;20.656;2024-03-08T15:51:19;100379.59;;;4.93;54.60
77299;BME280;66361;52.034;20.656;2024-03-08T15:55:03;100384.28;;;4.67;55.12
77299;BME280;66361;52.034;20.656;2024-03-08T15:58:47;100382.03;;;4.39;55.91
77299;BME280;66361;52.034;20.656;2024-03-08T16:02:33;100382.28;;;4.21;58.09
77299;BME280;66361;52.034;20.656;2024-03-08T16:06:17;100377.31;;;3.94;58.95
77299;BME280;66361;52.034;20.656;2024-03-08T16:10:05;100381.94;;;3.69;60.38
77299;BME280;66361;52.034;20.656;2024-03-08T16:13:50;100384.69;;;3.52;60.81
77299;BME280;66361;52.034;20.656;2024-03-08T16:17:36;100383.13;;;3.30;61.49
77299;BME280;66361;52.034;20.656;2024-03-08T16:21:22;100381.50;;;3.12;63.34
77299;BME280;66361;52.034;20.656;2024-03-08T16:25:07;100381.69;;;2.88;62.82
77299;BME280;66361;52.034;20.656;2024-03-08T16:28:54;100380.91;;;2.71;63.02
77299;BME280;66361;52.034;20.656;2024-03-08T16:32:43;100374.06;;;2.53;64.43
77299;BME280;66361;52.034;20.656;2024-03-08T16:36:28;100375.03;;;2.31;64.99
77299;BME280;66361;52.034;20.656;2024-03-08T16:40:11;100379.47;;;2.09;65.36
77299;BME280;66361;52.034;20.656;2024-03-08T16:43:58;100369.97;;;1.87;65.10
77299;BME280;66361;52.034;20.656;2024-03-08T16:47:47;100377.81;;;1.71;66.72
77299;BME280;66361;52.034;20.656;2024-03-08T16:51:31;100381.25;;;1.52;67.76
77299;BME280;66361;52.034;20.656;2024-03-08T16:55:15;100385.59;;;1.38;68.14
77299;BME280;66361;52.034;20.656;2024-03-08T16:58:59;100381.28;;;1.20;66.52
77299;BME280;66361;52.034;20.656;2024-03-08T17:02:48;100379.56;;;1.07;67.15
77299;BME280;66361;52.034;20.656;2024-03-08T17:06:32;100387.31;;;0.92;67.75
77299;BME280;66361;52.034;20.656;2024-03-08T17:10:16;100386.41;;;0.79;67.94
77299;BME280;66361;52.034;20.656;2024-03-08T17:14:02;100382.03;;;0.65;68.86
77299;BME280;66361;52.034;20.656;2024-03-08T17:17:48;100388.94;;;0.56;70.04
77299;BME280;66361;52.034;20.656;2024-03-08T17:21:32;100384.59;;;0.49;70.71
77299;BME280;66361;52.034;20.656;2024-03-08T17:25:16;100378.47;;;0.26;71.47
77299;BME280;66361;52.034;20.656;2024-03-08T17:29:03;100384.44;;;0.13;71.21
77299;BME280;66361;52.034;20.656;2024-03-08T17:32:50;100377.47;;;0.01;71.22
77299;BME280;66361;52.034;20.656;2024-03-08T17:36:39;100383.44;;;-0.09;70.74
77299;BME280;66361;52.034;20.656;2024-03-08T17:40:24;100386.84;;;-0.21;70.64
77299;BME280;66361;52.034;20.656;2024-03-08T17:44:09;100384.16;;;-0.34;70.68
77299;BME280;66361;52.034;20.656;2024-03-08T17:47:54;100383.25;;;-0.42;70.86
77299;BME280;66361;52.034;20.656;2024-03-08T17:51:38;100393.63;;;-0.42;71.45
77299;BME280;66361;52.034;20.656;2024-03-08T17:55:22;100386.66;;;-0.49;72.96
77299;BME280;66361;52.034;20.656;2024-03-08T17:59:07;100392.53;;;-0.67;73.48
77299;BME280;66361;52.034;20.656;2024-03-08T18:02:52;100397.59;;;-0.84;73.78
77299;BME280;66361;52.034;20.656;2024-03-08T18:06:38;100392.34;;;-0.91;73.75
77299;BME280;66361;52.034;20.656;2024-03-08T18:10:23;100387.97;;;-0.97;74.08
77299;BME280;66361;52.034;20.656;2024-03-08T18:14:09;100387.03;;;-1.07;74.07
77299;BME280;66361;52.034;20.656;2024-03-08T18:17:57;100383.47;;;-1.16;73.81
77299;BME280;66361;52.034;20.656;2024-03-08T18:21:43;100382.59;;;-1.20;74.56
77299;BME280;66361;52.034;20.656;2024-03-08T18:25:27;100389.41;;;-1.26;75.35
77299;BME280;66361;52.034;20.656;2024-03-08T18:29:11;100379.91;;;-1.29;76.14
77299;BME280;66361;52.034;20.656;2024-03-08T18:32:58;100382.44;;;-1.35;77.27
77299;BME280;66361;52.034;20.656;2024-03-08T18:36:44;100379.66;;;-1.52;76.68
77299;BME280;66361;52.034;20.656;2024-03-08T18:40:28;100381.22;;;-1.63;76.62
77299;BME280;66361;52.034;20.656;2024-03-08T18:44:12;100378.56;;;-1.72;77.34
77299;BME280;66361;52.034;20.656;2024-03-08T18:47:58;100385.28;;;-1.83;77.23
77299;BME280;66361;52.034;20.656;2024-03-08T18:51:44;100376.56;;;-1.94;77.01
77299;BME280;66361;52.034;20.656;2024-03-08T18:55:34;100381.66;;;-2.00;77.63
77299;BME280;66361;52.034;20.656;2024-03-08T18:59:18;100382.41;;;-2.07;77.20
77299;BME280;66361;52.034;20.656;2024-03-08T19:03:04;100384.97;;;-2.09;78.27
77299;BME280;66361;52.034;20.656;2024-03-08T19:06:53;100376.19;;;-2.20;77.85
77299;BME280;66361;52.034;20.656;2024-03-08T19:10:36;100381.13;;;-2.35;78.26
77299;BME280;66361;52.034;20.656;2024-03-08T19:14:21;100375.16;;;-2.33;78.55
77299;BME280;66361;52.034;20.656;2024-03-08T19:18:06;100366.47;;;-2.38;78.66
77299;BME280;66361;52.034;20.656;2024-03-08T19:21:53;100373.25;;;-2.46;78.22
77299;BME280;66361;52.034;20.656;2024-03-08T19:25:39;100372.22;;;-2.56;78.06
77299;BME280;66361;52.034;20.656;2024-03-08T19:29:25;100371.34;;;-2.56;78.90